sensor_id;sensor_type;location;lat;lon;timestamp;P1;durP1;ratioP1;P2;durP2;ratioP2
10335;SDS011;5213;53.548;9.930;2023-03-01T00:01:27;6.20;;;5.38;;
10335;SDS011;5213;53.548;9.930;2023-03-01T00:03:54;6.63;;;5.72;;
10335;SDS011;5213;53.548;9.930;2023-03-01T00:06:20;6.75;;;5.78;;
10335;SDS011;5213;53.548;9.930;2023-03-01T00:08:46;7.63;;;5.57;;
10335;SDS011;5213;53.548;9.930;2023-03-01T00:11:20;7.57;;;5.38;;
10335;SDS011;5213;53.548;9.930;2023-03-01T00:13:47;6.30;;;5.40;;
10335;SDS011;5213;53.548;9.930;2023-03-01T00:16:18;6.13;;;5.35;;
10335;SDS011;5213;53.548;9.930;2023-03-01T00:18:44;7.10;;;5.18;;
10335;SDS011;5213;53.548;9.930;2023-03-01T00:21:10;7.10;;;5.85;;
10335;SDS011;5213;53.548;9.930;2023-03-01T00:23:37;6.95;;;5.20;;
10335;SDS011;5213;53.548;9.930;2023-03-01T00:26:07;6.22;;;5.40;;
10335;SDS011;5213;53.548;9.930;2023-03-01T00:28:33;6.90;;;5.72;;
10335;SDS011;5213;53.548;9.930;2023-03-01T00:31:06;9.07;;;5.60;;
10335;SDS011;5213;53.548;9.930;2023-03-01T00:33:32;6.25;;;5.65;;
10335;SDS011;5213;53.548;9.930;2023-03-01T00:35:58;7.25;;;5.95;;
10335;SDS011;5213;53.548;9.930;2023-03-01T00:38:25;6.00;;;5.40;;
10335;SDS011;5213;53.548;9.930;2023-03-01T00:40:51;6.82;;;5.22;;
10335;SDS011;5213;53.548;9.930;2023-03-01T00:43:17;6.13;;;5.28;;
10335;SDS011;5213;53.548;9.930;2023-03-01T00:45:43;6.80;;;5.65;;
10335;SDS011;5213;53.548;9.930;2023-03-01T00:48:09;6.65;;;5.53;;
10335;SDS011;5213;53.548;9.930;2023-03-01T00:50:35;8.00;;;5.68;;
10335;SDS011;5213;53.548;9.930;2023-03-01T00:53:01;6.43;;;5.70;;
10335;SDS011;5213;53.548;9.930;2023-03-01T00:55:28;6.72;;;5.97;;
10335;SDS011;5213;53.548;9.930;2023-03-01T00:57:54;10.27;;;6.15;;
10335;SDS011;5213;53.548;9.930;2023-03-01T01:00:20;7.80;;;5.88;;
10335;SDS011;5213;53.548;9.930;2023-03-01T01:02:46;6.57;;;5.88;;
10335;SDS011;5213;53.548;9.930;2023-03-01T01:05:12;7.70;;;6.05;;
10335;SDS011;5213;53.548;9.930;2023-03-01T01:07:39;7.30;;;6.13;;
10335;SDS011;5213;53.548;9.930;2023-03-01T01:10:05;8.25;;;5.97;;
10335;SDS011;5213;53.548;9.930;2023-03-01T01:12:31;6.50;;;5.85;;
10335;SDS011;5213;53.548;9.930;2023-03-01T01:14:58;8.50;;;6.43;;
10335;SDS011;5213;53.548;9.930;2023-03-01T01:17:24;7.00;;;6.30;;
10335;SDS011;5213;53.548;9.930;2023-03-01T01:19:50;7.57;;;5.80;;
10335;SDS011;5213;53.548;9.930;2023-03-01T01:22:16;6.65;;;5.63;;
10335;SDS011;5213;53.548;9.930;2023-03-01T01:24:42;6.05;;;4.65;;
10335;SDS011;5213;53.548;9.930;2023-03-01T01:27:08;5.00;;;4.50;;
10335;SDS011;5213;53.548;9.930;2023-03-01T01:29:34;4.93;;;4.30;;
10335;SDS011;5213;53.548;9.930;2023-03-01T01:32:00;7.40;;;4.60;;
10335;SDS011;5213;53.548;9.930;2023-03-01T01:34:26;5.35;;;4.32;;
10335;SDS011;5213;53.548;9.930;2023-03-01T01:36:53;5.07;;;4.38;;
10335;SDS011;5213;53.548;9.930;2023-03-01T01:39:19;4.75;;;4.35;;
10335;SDS011;5213;53.548;9.930;2023-03-01T01:41:46;4.63;;;3.97;;
10335;SDS011;5213;53.548;9.930;2023-03-01T01:46:39;5.25;;;4.18;;
10335;SDS011;5213;53.548;9.930;2023-03-01T01:49:13;5.15;;;4.53;;
10335;SDS011;5213;53.548;9.930;2023-03-01T01:51:41;5.78;;;3.90;;
10335;SDS011;5213;53.548;9.930;2023-03-01T01:54:09;3.90;;;3.22;;
10335;SDS011;5213;53.548;9.930;2023-03-01T01:56:36;3.40;;;3.10;;
10335;SDS011;5213;53.548;9.930;2023-03-01T01:59:03;3.33;;;3.03;;
10335;SDS011;5213;53.548;9.930;2023-03-01T02:01:29;3.45;;;3.13;;
10335;SDS011;5213;53.548;9.930;2023-03-01T02:03:55;3.63;;;3.03;;
10335;SDS011;5213;53.548;9.930;2023-03-01T02:06:21;5.65;;;3.45;;
10335;SDS011;5213;53.548;9.930;2023-03-01T02:08:53;3.42;;;3.13;;
10335;SDS011;5213;53.548;9.930;2023-03-01T02:11:20;3.45;;;2.88;;
10335;SDS011;5213;53.548;9.930;2023-03-01T02:13:46;3.45;;;2.97;;
10335;SDS011;5213;53.548;9.930;2023-03-01T02:16:13;3.13;;;2.83;;
10335;SDS011;5213;53.548;9.930;2023-03-01T02:18:40;3.83;;;2.97;;
10335;SDS011;5213;53.548;9.930;2023-03-01T02:21:16;3.38;;;3.08;;
10335;SDS011;5213;53.548;9.930;2023-03-01T02:23:45;3.33;;;3.03;;
10335;SDS011;5213;53.548;9.930;2023-03-01T02:28:43;3.50;;;2.90;;
10335;SDS011;5213;53.548;9.930;2023-03-01T02:31:10;3.22;;;2.88;;
10335;SDS011;5213;53.548;9.930;2023-03-01T02:33:56;3.13;;;2.83;;
10335;SDS011;5213;53.548;9.930;2023-03-01T02:36:26;3.10;;;2.80;;
10335;SDS011;5213;53.548;9.930;2023-03-01T02:38:56;3.13;;;2.80;;
10335;SDS011;5213;53.548;9.930;2023-03-01T02:41:22;3.88;;;2.80;;
10335;SDS011;5213;53.548;9.930;2023-03-01T02:43:49;3.25;;;2.83;;
10335;SDS011;5213;53.548;9.930;2023-03-01T02:46:16;3.40;;;2.90;;
10335;SDS011;5213;53.548;9.930;2023-03-01T02:48:44;5.38;;;2.95;;
10335;SDS011;5213;53.548;9.930;2023-03-01T02:51:18;4.38;;;2.97;;
10335;SDS011;5213;53.548;9.930;2023-03-01T02:56:14;3.10;;;2.80;;
10335;SDS011;5213;53.548;9.930;2023-03-01T02:58:41;3.47;;;2.88;;
10335;SDS011;5213;53.548;9.930;2023-03-01T03:01:10;3.30;;;3.00;;
10335;SDS011;5213;53.548;9.930;2023-03-01T03:03:36;3.90;;;2.97;;
10335;SDS011;5213;53.548;9.930;2023-03-01T03:06:02;3.25;;;2.97;;
10335;SDS011;5213;53.548;9.930;2023-03-01T03:08:28;3.30;;;3.10;;
10335;SDS011;5213;53.548;9.930;2023-03-01T03:10:54;3.85;;;3.00;;
10335;SDS011;5213;53.548;9.930;2023-03-01T03:13:20;4.25;;;3.20;;
10335;SDS011;5213;53.548;9.930;2023-03-01T03:15:47;3.53;;;3.17;;
10335;SDS011;5213;53.548;9.930;2023-03-01T03:18:14;4.00;;;3.30;;
10335;SDS011;5213;53.548;9.930;2023-03-01T03:20:41;4.32;;;3.17;;
10335;SDS011;5213;53.548;9.930;2023-03-01T03:23:08;4.15;;;3.63;;
10335;SDS011;5213;53.548;9.930;2023-03-01T03:25:34;5.55;;;3.20;;
10335;SDS011;5213;53.548;9.930;2023-03-01T03:28:03;3.25;;;2.88;;
10335;SDS011;5213;53.548;9.930;2023-03-01T03:30:34;3.53;;;3.10;;
10335;SDS011;5213;53.548;9.930;2023-03-01T03:33:00;3.65;;;3.05;;
10335;SDS011;5213;53.548;9.930;2023-03-01T03:35:28;3.60;;;2.85;;
10335;SDS011;5213;53.548;9.930;2023-03-01T03:38:01;5.43;;;3.10;;
10335;SDS011;5213;53.548;9.930;2023-03-01T03:40:38;3.67;;;2.92;;
10335;SDS011;5213;53.548;9.930;2023-03-01T03:43:05;3.17;;;2.83;;
10335;SDS011;5213;53.548;9.930;2023-03-01T03:45:32;3.03;;;2.80;;
10335;SDS011;5213;53.548;9.930;2023-03-01T03:47:58;2.72;;;2.53;;
10335;SDS011;5213;53.548;9.930;2023-03-01T03:50:25;3.42;;;2.85;;
10335;SDS011;5213;53.548;9.930;2023-03-01T03:52:51;4.90;;;2.58;;
10335;SDS011;5213;53.548;9.930;2023-03-01T03:55:17;3.25;;;2.95;;
10335;SDS011;5213;53.548;9.930;2023-03-01T03:57:44;3.20;;;2.80;;
10335;SDS011;5213;53.548;9.930;2023-03-01T04:00:16;3.72;;;2.83;;
10335;SDS011;5213;53.548;9.930;2023-03-01T04:02:43;2.90;;;2.65;;
10335;SDS011;5213;53.548;9.930;2023-03-01T04:05:09;3.13;;;2.80;;
10335;SDS011;5213;53.548;9.930;2023-03-01T04:07:36;3.45;;;2.70;;
10335;SDS011;5213;53.548;9.930;2023-03-01T04:10:03;2.97;;;2.78;;
10335;SDS011;5213;53.548;9.930;2023-03-01T04:12:29;3.40;;;2.55;;
10335;SDS011;5213;53.548;9.930;2023-03-01T04:14:55;2.72;;;2.53;;
10335;SDS011;5213;53.548;9.930;2023-03-01T04:17:21;3.13;;;2.88;;
10335;SDS011;5213;53.548;9.930;2023-03-01T04:19:47;3.65;;;2.55;;
10335;SDS011;5213;53.548;9.930;2023-03-01T04:22:14;2.95;;;2.45;;
10335;SDS011;5213;53.548;9.930;2023-03-01T04:24:42;3.63;;;2.90;;
10335;SDS011;5213;53.548;9.930;2023-03-01T04:27:08;3.67;;;2.70;;
10335;SDS011;5213;53.548;9.930;2023-03-01T04:29:34;3.33;;;2.88;;
10335;SDS011;5213;53.548;9.930;2023-03-01T04:32:00;3.13;;;2.83;;
10335;SDS011;5213;53.548;9.930;2023-03-01T04:34:27;3.08;;;2.65;;
10335;SDS011;5213;53.548;9.930;2023-03-01T04:36:54;3.20;;;2.90;;
10335;SDS011;5213;53.548;9.930;2023-03-01T04:39:20;3.35;;;3.00;;
10335;SDS011;5213;53.548;9.930;2023-03-01T04:41:46;4.10;;;2.60;;
10335;SDS011;5213;53.548;9.930;2023-03-01T04:44:12;2.92;;;2.72;;
10335;SDS011;5213;53.548;9.930;2023-03-01T04:46:38;2.85;;;2.65;;
10335;SDS011;5213;53.548;9.930;2023-03-01T04:49:04;3.83;;;2.90;;
10335;SDS011;5213;53.548;9.930;2023-03-01T04:51:31;3.08;;;2.72;;
10335;SDS011;5213;53.548;9.930;2023-03-01T04:53:57;3.30;;;3.00;;
10335;SDS011;5213;53.548;9.930;2023-03-01T04:56:25;2.97;;;2.60;;
10335;SDS011;5213;53.548;9.930;2023-03-01T04:58:52;3.38;;;2.80;;
10335;SDS011;5213;53.548;9.930;2023-03-01T05:01:19;4.00;;;2.95;;
10335;SDS011;5213;53.548;9.930;2023-03-01T05:03:46;3.17;;;2.88;;
10335;SDS011;5213;53.548;9.930;2023-03-01T05:06:12;3.08;;;2.80;;
10335;SDS011;5213;53.548;9.930;2023-03-01T05:08:39;3.72;;;3.03;;
10335;SDS011;5213;53.548;9.930;2023-03-01T05:11:05;3.90;;;3.08;;
10335;SDS011;5213;53.548;9.930;2023-03-01T05:13:34;3.25;;;2.67;;
10335;SDS011;5213;53.548;9.930;2023-03-01T05:16:00;3.20;;;2.95;;
10335;SDS011;5213;53.548;9.930;2023-03-01T05:18:27;4.53;;;3.17;;
10335;SDS011;5213;53.548;9.930;2023-03-01T05:20:55;3.92;;;3.50;;
10335;SDS011;5213;53.548;9.930;2023-03-01T05:23:23;5.28;;;3.30;;
10335;SDS011;5213;53.548;9.930;2023-03-01T05:25:49;3.30;;;3.00;;
10335;SDS011;5213;53.548;9.930;2023-03-01T05:28:17;3.35;;;2.92;;
10335;SDS011;5213;53.548;9.930;2023-03-01T05:30:43;4.05;;;3.42;;
10335;SDS011;5213;53.548;9.930;2023-03-01T05:33:09;4.00;;;3.00;;
10335;SDS011;5213;53.548;9.930;2023-03-01T05:35:39;3.30;;;3.00;;
10335;SDS011;5213;53.548;9.930;2023-03-01T05:38:06;3.30;;;3.00;;
10335;SDS011;5213;53.548;9.930;2023-03-01T05:40:32;3.17;;;2.88;;
10335;SDS011;5213;53.548;9.930;2023-03-01T05:42:59;3.78;;;3.42;;
10335;SDS011;5213;53.548;9.930;2023-03-01T05:45:25;4.00;;;2.83;;
10335;SDS011;5213;53.548;9.930;2023-03-01T05:47:52;3.63;;;2.95;;
10335;SDS011;5213;53.548;9.930;2023-03-01T05:50:20;3.15;;;2.80;;
10335;SDS011;5213;53.548;9.930;2023-03-01T05:52:48;3.45;;;2.95;;
10335;SDS011;5213;53.548;9.930;2023-03-01T05:55:15;5.32;;;2.90;;
10335;SDS011;5213;53.548;9.930;2023-03-01T05:57:41;3.78;;;3.38;;
10335;SDS011;5213;53.548;9.930;2023-03-01T06:00:08;5.47;;;3.55;;
10335;SDS011;5213;53.548;9.930;2023-03-01T06:02:34;4.15;;;3.55;;
10335;SDS011;5213;53.548;9.930;2023-03-01T06:05:00;3.13;;;2.85;;
10335;SDS011;5213;53.548;9.930;2023-03-01T06:07:26;4.97;;;3.20;;
10335;SDS011;5213;53.548;9.930;2023-03-01T06:09:52;4.13;;;3.50;;
10335;SDS011;5213;53.548;9.930;2023-03-01T06:12:18;4.10;;;3.17;;
10335;SDS011;5213;53.548;9.930;2023-03-01T06:14:44;5.82;;;3.83;;
10335;SDS011;5213;53.548;9.930;2023-03-01T06:17:11;3.72;;;3.33;;
10335;SDS011;5213;53.548;9.930;2023-03-01T06:19:37;3.72;;;3.15;;
10335;SDS011;5213;53.548;9.930;2023-03-01T06:22:03;3.72;;;3.03;;
10335;SDS011;5213;53.548;9.930;2023-03-01T06:24:29;3.97;;;3.08;;
10335;SDS011;5213;53.548;9.930;2023-03-01T06:26:55;3.60;;;3.30;;
10335;SDS011;5213;53.548;9.930;2023-03-01T06:29:21;5.50;;;3.28;;
10335;SDS011;5213;53.548;9.930;2023-03-01T06:31:47;4.75;;;3.40;;
10335;SDS011;5213;53.548;9.930;2023-03-01T06:34:14;3.67;;;3.20;;
10335;SDS011;5213;53.548;9.930;2023-03-01T06:36:40;4.30;;;3.58;;
10335;SDS011;5213;53.548;9.930;2023-03-01T06:39:06;4.43;;;3.20;;
10335;SDS011;5213;53.548;9.930;2023-03-01T06:41:32;3.53;;;3.25;;
10335;SDS011;5213;53.548;9.930;2023-03-01T06:43:58;3.85;;;3.40;;
10335;SDS011;5213;53.548;9.930;2023-03-01T06:46:24;4.03;;;3.67;;
10335;SDS011;5213;53.548;9.930;2023-03-01T06:48:50;5.18;;;4.13;;
10335;SDS011;5213;53.548;9.930;2023-03-01T06:51:16;4.65;;;4.20;;
10335;SDS011;5213;53.548;9.930;2023-03-01T06:53:42;7.50;;;6.43;;
10335;SDS011;5213;53.548;9.930;2023-03-01T06:56:08;7.97;;;6.75;;
10335;SDS011;5213;53.548;9.930;2023-03-01T06:58:34;6.93;;;6.25;;
10335;SDS011;5213;53.548;9.930;2023-03-01T07:01:04;6.97;;;6.10;;
10335;SDS011;5213;53.548;9.930;2023-03-01T07:03:30;7.07;;;5.97;;
10335;SDS011;5213;53.548;9.930;2023-03-01T07:05:56;7.38;;;6.00;;
10335;SDS011;5213;53.548;9.930;2023-03-01T07:08:22;7.55;;;5.75;;
10335;SDS011;5213;53.548;9.930;2023-03-01T07:10:54;6.07;;;5.20;;
10335;SDS011;5213;53.548;9.930;2023-03-01T07:13:20;6.10;;;5.47;;
10335;SDS011;5213;53.548;9.930;2023-03-01T07:15:46;5.95;;;4.43;;
10335;SDS011;5213;53.548;9.930;2023-03-01T07:18:12;5.05;;;4.53;;
10335;SDS011;5213;53.548;9.930;2023-03-01T07:20:38;9.55;;;4.60;;
10335;SDS011;5213;53.548;9.930;2023-03-01T07:23:05;6.03;;;4.30;;
10335;SDS011;5213;53.548;9.930;2023-03-01T07:25:31;5.15;;;4.65;;
10335;SDS011;5213;53.548;9.930;2023-03-01T07:27:57;5.03;;;4.30;;
10335;SDS011;5213;53.548;9.930;2023-03-01T07:30:23;6.55;;;4.38;;
10335;SDS011;5213;53.548;9.930;2023-03-01T07:32:52;4.13;;;3.83;;
10335;SDS011;5213;53.548;9.930;2023-03-01T07:35:18;6.32;;;4.43;;
10335;SDS011;5213;53.548;9.930;2023-03-01T07:37:44;11.07;;;4.53;;
10335;SDS011;5213;53.548;9.930;2023-03-01T07:40:10;5.82;;;4.53;;
10335;SDS011;5213;53.548;9.930;2023-03-01T07:42:37;7.25;;;4.47;;
10335;SDS011;5213;53.548;9.930;2023-03-01T07:45:03;4.95;;;4.45;;
10335;SDS011;5213;53.548;9.930;2023-03-01T07:47:29;6.68;;;4.63;;
10335;SDS011;5213;53.548;9.930;2023-03-01T07:49:55;7.82;;;5.00;;
10335;SDS011;5213;53.548;9.930;2023-03-01T07:52:21;7.82;;;4.63;;
10335;SDS011;5213;53.548;9.930;2023-03-01T07:54:47;8.52;;;5.40;;
10335;SDS011;5213;53.548;9.930;2023-03-01T07:57:13;7.28;;;5.65;;
10335;SDS011;5213;53.548;9.930;2023-03-01T07:59:39;11.27;;;6.03;;
10335;SDS011;5213;53.548;9.930;2023-03-01T08:02:05;9.73;;;5.70;;
10335;SDS011;5213;53.548;9.930;2023-03-01T08:04:32;6.70;;;5.43;;
10335;SDS011;5213;53.548;9.930;2023-03-01T08:06:58;9.35;;;6.00;;
10335;SDS011;5213;53.548;9.930;2023-03-01T08:09:24;8.18;;;6.28;;
10335;SDS011;5213;53.548;9.930;2023-03-01T08:11:50;9.38;;;6.07;;
10335;SDS011;5213;53.548;9.930;2023-03-01T08:14:16;8.25;;;6.20;;
10335;SDS011;5213;53.548;9.930;2023-03-01T08:16:42;11.07;;;5.97;;
10335;SDS011;5213;53.548;9.930;2023-03-01T08:19:09;8.13;;;6.57;;
10335;SDS011;5213;53.548;9.930;2023-03-01T08:21:35;8.25;;;6.72;;
10335;SDS011;5213;53.548;9.930;2023-03-01T08:24:05;11.65;;;7.22;;
10335;SDS011;5213;53.548;9.930;2023-03-01T08:26:31;8.02;;;6.95;;
10335;SDS011;5213;53.548;9.930;2023-03-01T08:28:58;11.82;;;7.53;;
10335;SDS011;5213;53.548;9.930;2023-03-01T08:33:51;9.50;;;7.32;;
10335;SDS011;5213;53.548;9.930;2023-03-01T08:36:20;8.60;;;7.65;;
10335;SDS011;5213;53.548;9.930;2023-03-01T08:38:47;8.18;;;7.30;;
10335;SDS011;5213;53.548;9.930;2023-03-01T08:41:13;10.35;;;7.93;;
10335;SDS011;5213;53.548;9.930;2023-03-01T08:43:39;10.35;;;9.25;;
10335;SDS011;5213;53.548;9.930;2023-03-01T08:46:05;14.93;;;8.45;;
10335;SDS011;5213;53.548;9.930;2023-03-01T08:48:31;10.57;;;8.55;;
10335;SDS011;5213;53.548;9.930;2023-03-01T08:51:06;13.13;;;8.60;;
10335;SDS011;5213;53.548;9.930;2023-03-01T08:53:32;14.43;;;9.60;;
10335;SDS011;5213;53.548;9.930;2023-03-01T08:56:01;11.02;;;8.73;;
10335;SDS011;5213;53.548;9.930;2023-03-01T08:58:28;11.68;;;9.02;;
10335;SDS011;5213;53.548;9.930;2023-03-01T09:00:54;12.55;;;9.15;;
10335;SDS011;5213;53.548;9.930;2023-03-01T09:03:21;10.88;;;8.05;;
10335;SDS011;5213;53.548;9.930;2023-03-01T09:05:47;7.85;;;6.55;;
10335;SDS011;5213;53.548;9.930;2023-03-01T09:08:16;9.30;;;6.40;;
10335;SDS011;5213;53.548;9.930;2023-03-01T09:10:42;7.00;;;6.22;;
10335;SDS011;5213;53.548;9.930;2023-03-01T09:13:08;10.65;;;6.50;;
10335;SDS011;5213;53.548;9.930;2023-03-01T09:15:36;6.97;;;5.72;;
10335;SDS011;5213;53.548;9.930;2023-03-01T09:18:02;7.13;;;5.80;;
10335;SDS011;5213;53.548;9.930;2023-03-01T09:20:29;7.07;;;6.18;;
10335;SDS011;5213;53.548;9.930;2023-03-01T09:22:55;10.10;;;6.82;;
10335;SDS011;5213;53.548;9.930;2023-03-01T09:25:21;11.32;;;7.28;;
10335;SDS011;5213;53.548;9.930;2023-03-01T09:27:49;12.02;;;8.68;;
10335;SDS011;5213;53.548;9.930;2023-03-01T09:30:16;13.60;;;9.43;;
10335;SDS011;5213;53.548;9.930;2023-03-01T09:32:42;12.18;;;8.80;;
10335;SDS011;5213;53.548;9.930;2023-03-01T09:35:09;17.23;;;9.30;;
10335;SDS011;5213;53.548;9.930;2023-03-01T09:37:35;10.35;;;9.25;;
10335;SDS011;5213;53.548;9.930;2023-03-01T09:40:12;11.05;;;9.40;;
10335;SDS011;5213;53.548;9.930;2023-03-01T09:42:45;11.35;;;10.07;;
10335;SDS011;5213;53.548;9.930;2023-03-01T09:45:25;12.82;;;9.75;;
10335;SDS011;5213;53.548;9.930;2023-03-01T09:47:51;13.65;;;9.88;;
10335;SDS011;5213;53.548;9.930;2023-03-01T09:50:19;10.77;;;9.32;;
10335;SDS011;5213;53.548;9.930;2023-03-01T09:55:16;11.23;;;9.85;;
10335;SDS011;5213;53.548;9.930;2023-03-01T09:57:45;14.50;;;10.48;;
10335;SDS011;5213;53.548;9.930;2023-03-01T10:00:19;13.18;;;10.35;;
10335;SDS011;5213;53.548;9.930;2023-03-01T10:03:03;11.98;;;10.20;;
10335;SDS011;5213;53.548;9.930;2023-03-01T10:05:37;14.00;;;10.30;;
10335;SDS011;5213;53.548;9.930;2023-03-01T10:08:26;12.25;;;9.88;;
10335;SDS011;5213;53.548;9.930;2023-03-01T10:10:54;11.40;;;9.50;;
10335;SDS011;5213;53.548;9.930;2023-03-01T10:15:53;11.70;;;9.70;;
10335;SDS011;5213;53.548;9.930;2023-03-01T10:18:27;11.52;;;9.82;;
10335;SDS011;5213;53.548;9.930;2023-03-01T10:23:23;12.45;;;9.73;;
10335;SDS011;5213;53.548;9.930;2023-03-01T10:30:45;10.77;;;8.23;;
10335;SDS011;5213;53.548;9.930;2023-03-01T10:33:19;10.73;;;8.48;;
10335;SDS011;5213;53.548;9.930;2023-03-01T10:35:46;10.23;;;8.95;;
10335;SDS011;5213;53.548;9.930;2023-03-01T10:38:13;11.15;;;8.50;;
10335;SDS011;5213;53.548;9.930;2023-03-01T10:40:50;13.65;;;9.15;;
10335;SDS011;5213;53.548;9.930;2023-03-01T10:43:16;13.07;;;9.23;;
10335;SDS011;5213;53.548;9.930;2023-03-01T10:45:42;14.77;;;9.07;;
10335;SDS011;5213;53.548;9.930;2023-03-01T10:48:22;13.57;;;8.18;;
10335;SDS011;5213;53.548;9.930;2023-03-01T10:50:51;11.98;;;8.80;;
10335;SDS011;5213;53.548;9.930;2023-03-01T10:53:31;11.73;;;8.80;;
10335;SDS011;5213;53.548;9.930;2023-03-01T10:55:59;13.98;;;9.60;;
10335;SDS011;5213;53.548;9.930;2023-03-01T10:58:26;14.98;;;9.52;;
10335;SDS011;5213;53.548;9.930;2023-03-01T11:00:56;13.13;;;8.98;;
10335;SDS011;5213;53.548;9.930;2023-03-01T11:03:24;13.25;;;8.63;;
10335;SDS011;5213;53.548;9.930;2023-03-01T11:08:26;12.35;;;8.60;;
10335;SDS011;5213;53.548;9.930;2023-03-01T11:11:03;10.68;;;8.38;;
10335;SDS011;5213;53.548;9.930;2023-03-01T11:13:29;9.48;;;7.60;;
10335;SDS011;5213;53.548;9.930;2023-03-01T11:16:00;11.80;;;7.70;;
10335;SDS011;5213;53.548;9.930;2023-03-01T11:18:26;10.88;;;8.30;;
10335;SDS011;5213;53.548;9.930;2023-03-01T11:20:53;11.48;;;7.82;;
10335;SDS011;5213;53.548;9.930;2023-03-01T11:23:20;14.57;;;8.80;;
10335;SDS011;5213;53.548;9.930;2023-03-01T11:25:50;10.02;;;8.07;;
10335;SDS011;5213;53.548;9.930;2023-03-01T11:28:17;10.55;;;7.60;;
10335;SDS011;5213;53.548;9.930;2023-03-01T11:36:00;11.13;;;7.63;;
10335;SDS011;5213;53.548;9.930;2023-03-01T11:38:27;12.25;;;7.60;;
10335;SDS011;5213;53.548;9.930;2023-03-01T11:40:57;10.70;;;7.75;;
10335;SDS011;5213;53.548;9.930;2023-03-01T11:45:55;7.60;;;6.10;;
10335;SDS011;5213;53.548;9.930;2023-03-01T11:48:30;9.75;;;7.25;;
10335;SDS011;5213;53.548;9.930;2023-03-01T11:51:01;7.93;;;6.47;;
10335;SDS011;5213;53.548;9.930;2023-03-01T11:53:32;8.20;;;5.88;;
10335;SDS011;5213;53.548;9.930;2023-03-01T11:56:12;11.43;;;6.05;;
10335;SDS011;5213;53.548;9.930;2023-03-01T12:08:57;5.00;;;3.90;;
10335;SDS011;5213;53.548;9.930;2023-03-01T12:11:33;3.90;;;3.60;;
10335;SDS011;5213;53.548;9.930;2023-03-01T12:29:57;7.10;;;4.70;;
10335;SDS011;5213;53.548;9.930;2023-03-01T12:32:45;5.60;;;5.00;;
10335;SDS011;5213;53.548;9.930;2023-03-01T12:45:18;9.15;;;5.53;;
10335;SDS011;5213;53.548;9.930;2023-03-01T12:47:57;6.30;;;5.13;;
10335;SDS011;5213;53.548;9.930;2023-03-01T12:50:26;5.65;;;5.15;;
10335;SDS011;5213;53.548;9.930;2023-03-01T12:52:56;8.88;;;4.90;;
10335;SDS011;5213;53.548;9.930;2023-03-01T12:55:36;5.78;;;5.22;;
10335;SDS011;5213;53.548;9.930;2023-03-01T13:03:14;4.60;;;3.83;;
10335;SDS011;5213;53.548;9.930;2023-03-01T13:05:55;5.10;;;4.60;;
10335;SDS011;5213;53.548;9.930;2023-03-01T13:08:26;5.47;;;4.60;;
10335;SDS011;5213;53.548;9.930;2023-03-01T13:10:57;6.47;;;5.63;;
10335;SDS011;5213;53.548;9.930;2023-03-01T13:13:25;5.55;;;5.00;;
10335;SDS011;5213;53.548;9.930;2023-03-01T13:15:52;5.15;;;4.50;;
10335;SDS011;5213;53.548;9.930;2023-03-01T13:20:48;6.70;;;5.13;;
10335;SDS011;5213;53.548;9.930;2023-03-01T13:31:02;8.25;;;5.32;;
10335;SDS011;5213;53.548;9.930;2023-03-01T13:35:55;6.47;;;4.40;;
10335;SDS011;5213;53.548;9.930;2023-03-01T13:39:26;6.47;;;5.43;;
10335;SDS011;5213;53.548;9.930;2023-03-01T13:41:47;6.03;;;5.00;;
10335;SDS011;5213;53.548;9.930;2023-03-01T13:49:32;9.35;;;6.47;;
10335;SDS011;5213;53.548;9.930;2023-03-01T13:52:01;7.82;;;6.10;;
10335;SDS011;5213;53.548;9.930;2023-03-01T13:54:31;8.02;;;6.00;;
10335;SDS011;5213;53.548;9.930;2023-03-01T13:56:58;9.70;;;6.43;;
10335;SDS011;5213;53.548;9.930;2023-03-01T13:59:24;8.02;;;6.13;;
10335;SDS011;5213;53.548;9.930;2023-03-01T14:01:55;7.63;;;6.47;;
10335;SDS011;5213;53.548;9.930;2023-03-01T14:04:23;8.30;;;6.40;;
10335;SDS011;5213;53.548;9.930;2023-03-01T14:06:50;7.55;;;6.15;;
10335;SDS011;5213;53.548;9.930;2023-03-01T14:16:49;9.68;;;6.35;;
10335;SDS011;5213;53.548;9.930;2023-03-01T14:19:19;7.93;;;6.20;;
10335;SDS011;5213;53.548;9.930;2023-03-01T14:21:53;7.03;;;6.03;;
10335;SDS011;5213;53.548;9.930;2023-03-01T14:24:25;6.63;;;5.57;;
10335;SDS011;5213;53.548;9.930;2023-03-01T14:26:52;7.90;;;5.82;;
10335;SDS011;5213;53.548;9.930;2023-03-01T14:29:25;9.18;;;5.93;;
10335;SDS011;5213;53.548;9.930;2023-03-01T14:31:51;9.10;;;6.45;;
10335;SDS011;5213;53.548;9.930;2023-03-01T14:34:22;7.65;;;6.20;;
10335;SDS011;5213;53.548;9.930;2023-03-01T14:36:48;7.00;;;5.75;;
10335;SDS011;5213;53.548;9.930;2023-03-01T14:39:24;7.97;;;5.30;;
10335;SDS011;5213;53.548;9.930;2023-03-01T14:41:51;7.85;;;5.53;;
10335;SDS011;5213;53.548;9.930;2023-03-01T14:44:21;7.72;;;5.70;;
10335;SDS011;5213;53.548;9.930;2023-03-01T14:46:51;7.13;;;5.50;;
10335;SDS011;5213;53.548;9.930;2023-03-01T14:49:24;7.60;;;5.55;;
10335;SDS011;5213;53.548;9.930;2023-03-01T14:51:52;6.95;;;5.28;;
10335;SDS011;5213;53.548;9.930;2023-03-01T14:54:24;6.60;;;5.40;;
10335;SDS011;5213;53.548;9.930;2023-03-01T14:56:51;8.02;;;5.07;;
10335;SDS011;5213;53.548;9.930;2023-03-01T14:59:19;6.38;;;5.00;;
10335;SDS011;5213;53.548;9.930;2023-03-01T15:01:45;5.43;;;4.57;;
10335;SDS011;5213;53.548;9.930;2023-03-01T15:04:12;5.03;;;4.53;;
10335;SDS011;5213;53.548;9.930;2023-03-01T15:06:38;7.03;;;4.85;;
10335;SDS011;5213;53.548;9.930;2023-03-01T15:09:04;5.75;;;4.68;;
10335;SDS011;5213;53.548;9.930;2023-03-01T15:11:31;6.53;;;5.57;;
10335;SDS011;5213;53.548;9.930;2023-03-01T15:13:58;5.93;;;5.28;;
10335;SDS011;5213;53.548;9.930;2023-03-01T15:16:31;7.70;;;5.60;;
10335;SDS011;5213;53.548;9.930;2023-03-01T15:18:58;7.70;;;5.75;;
10335;SDS011;5213;53.548;9.930;2023-03-01T15:21:27;8.43;;;5.90;;
10335;SDS011;5213;53.548;9.930;2023-03-01T15:23:54;6.43;;;5.63;;
10335;SDS011;5213;53.548;9.930;2023-03-01T15:26:22;8.23;;;5.95;;
10335;SDS011;5213;53.548;9.930;2023-03-01T15:28:49;6.60;;;5.80;;
10335;SDS011;5213;53.548;9.930;2023-03-01T15:31:23;6.55;;;5.22;;
10335;SDS011;5213;53.548;9.930;2023-03-01T15:33:49;6.95;;;5.68;;
10335;SDS011;5213;53.548;9.930;2023-03-01T15:36:33;7.72;;;5.80;;
10335;SDS011;5213;53.548;9.930;2023-03-01T15:38:59;8.43;;;5.93;;
10335;SDS011;5213;53.548;9.930;2023-03-01T15:41:36;7.18;;;6.00;;
10335;SDS011;5213;53.548;9.930;2023-03-01T15:44:16;6.32;;;5.47;;
10335;SDS011;5213;53.548;9.930;2023-03-01T15:46:45;7.70;;;6.15;;
10335;SDS011;5213;53.548;9.930;2023-03-01T15:51:56;8.65;;;6.60;;
10335;SDS011;5213;53.548;9.930;2023-03-01T15:54:23;9.80;;;7.60;;
10335;SDS011;5213;53.548;9.930;2023-03-01T15:56:50;8.13;;;6.53;;
10335;SDS011;5213;53.548;9.930;2023-03-01T15:59:16;10.82;;;6.78;;
10335;SDS011;5213;53.548;9.930;2023-03-01T16:01:44;8.75;;;6.93;;
10335;SDS011;5213;53.548;9.930;2023-03-01T16:04:13;9.90;;;7.38;;
10335;SDS011;5213;53.548;9.930;2023-03-01T16:06:51;8.85;;;7.20;;
10335;SDS011;5213;53.548;9.930;2023-03-01T16:09:24;10.60;;;7.72;;
10335;SDS011;5213;53.548;9.930;2023-03-01T16:11:51;9.77;;;7.63;;
10335;SDS011;5213;53.548;9.930;2023-03-01T16:14:18;13.07;;;8.88;;
10335;SDS011;5213;53.548;9.930;2023-03-01T16:16:44;11.73;;;8.98;;
10335;SDS011;5213;53.548;9.930;2023-03-01T16:19:10;12.20;;;8.57;;
10335;SDS011;5213;53.548;9.930;2023-03-01T16:21:36;14.98;;;10.45;;
10335;SDS011;5213;53.548;9.930;2023-03-01T16:24:03;15.50;;;9.57;;
10335;SDS011;5213;53.548;9.930;2023-03-01T16:26:29;14.75;;;10.25;;
10335;SDS011;5213;53.548;9.930;2023-03-01T16:28:55;15.55;;;10.40;;
10335;SDS011;5213;53.548;9.930;2023-03-01T16:31:22;14.27;;;10.02;;
10335;SDS011;5213;53.548;9.930;2023-03-01T16:33:48;15.90;;;9.88;;
10335;SDS011;5213;53.548;9.930;2023-03-01T16:36:17;16.10;;;10.38;;
10335;SDS011;5213;53.548;9.930;2023-03-01T16:38:43;13.25;;;9.68;;
10335;SDS011;5213;53.548;9.930;2023-03-01T16:41:13;12.63;;;8.68;;
10335;SDS011;5213;53.548;9.930;2023-03-01T16:43:39;11.60;;;8.82;;
10335;SDS011;5213;53.548;9.930;2023-03-01T16:46:10;11.35;;;8.85;;